MST,Max TemperatureF,Mean TemperatureF,Min TemperatureF,Max Dew PointF,MeanDew PointF,Min DewpointF,Max Humidity, Mean Humidity, Min Humidity, Max Sea Level PressureIn, Mean Sea Level PressureIn, Min Sea Level PressureIn, Max VisibilityMiles, Mean VisibilityMiles, Min VisibilityMiles, Max Wind SpeedMPH, Mean Wind SpeedMPH, Max Gust SpeedMPH,PrecipitationIn, CloudCover, Events, WindDirDegrees
2012-12-1,58,50,41,51,45,36,100,92,44,29.92,29.85,29.71,10,10,10,17,13,26,T,7,,111
2012-12-2,64,47,30,48,36,24,100,52,34,30.09,29.56,29.39,10,10,9,25,14,36,T,5,Rain,167
2012-12-3,49,38,26,35,30,25,100,79,46,30.25,30.20,30.07,10,10,10,18,8,,0.00,0,,98
2012-12-4,45,42,39,45,40,30,100,93,66,30.22,30.14,30.04,10,9,5,25,19,32,0.14,8,Rain,99
2012-12-5,57,46,34,55,47,34,100,96,67,30.12,30.05,30.00,10,10,9,18,8,,0.06,5,Rain,37
2012-12-6,45,37,29,43,36,30,100,96,72,30.17,30.11,30.04,10,10,9,16,6,,T,5,,293
2012-12-7,44,32,20,36,27,21,100,82,42,30.22,30.13,30.01,10,10,10,12,4,,0.00,3,,340
2012-12-8,40,35,29,37,30,22,100,93,56,30.25,30.11,29.96,10,8,1,28,14,39,T,8,Rain-Snow,311
2012-12-9,36,31,26,32,28,19,100,93,51,30.48,30.31,30.18,10,9,2,12,5,,T,7,Snow,316
2012-12-10,43,37,31,41,33,27,100,98,80,30.34,30.24,30.14,10,10,10,21,6,26,T,6,Rain-Snow,284
2012-12-11,51,38,25,40,32,26,100,87,40,30.19,29.90,29.59,10,10,8,21,8,23,0.00,4,,102
2012-12-12,46,40,33,43,38,31,100,95,56,29.88,29.73,29.61,10,10,8,15,8,24,0.05,7,Rain,345
2012-12-13,37,35,32,36,33,32,100,100,99,29.96,29.89,29.83,10,8,2,12,6,,T,7,Rain-Snow,300
2012-12-14,40,34,28,37,32,29,100,96,70,29.92,29.79,29.72,10,10,10,12,4,,0.00,7,,286
2012-12-15,38,33,28,34,29,21,100,87,49,29.97,29.87,29.78,10,10,5,10,6,,0.00,7,Snow,144
2012-12-16,35,32,28,36,32,28,100,100,100,29.96,29.83,29.66,10,8,2,22,8,,0.01,8,Rain-Snow,107
2012-12-17,48,37,26,43,33,20,100,78,41,29.96,29.68,29.53,10,10,2,29,17,47,0.01,5,Rain,289
2012-12-18,34,25,16,21,18,14,100,79,46,30.11,30.02,29.95,10,10,10,13,6,,0.00,0,,331
2012-12-19,34,22,9,20,16,10,100,74,38,30.37,30.28,30.12,10,10,10,22,7,26,0.00,2,,101
2012-12-20,38,33,28,18,9,6,64,39,29,30.30,30.19,30.09,10,10,10,38,25,45,0.00,4,,107
2012-12-21,42,36,29,16,11,7,47,36,28,30.07,30.01,29.95,10,10,10,29,24,37,0.00,4,,112
2012-12-22,45,36,26,38,20,12,100,57,27,29.97,29.87,29.76,10,10,10,26,18,38,T,4,Rain,116
2012-12-23,37,31,25,36,32,25,100,99,83,30.08,29.90,29.74,10,7,1,24,13,32,0.03,7,Rain-Snow,103
2012-12-24,38,29,20,36,30,21,100,91,62,30.27,30.00,29.75,10,10,10,18,11,23,T,5,Rain-Snow,298
2012-12-25,33,24,15,30,25,16,100,92,55,30.28,30.01,29.86,10,6,1,25,15,31,T,7,Snow,109
2012-12-26,31,29,26,32,28,26,100,100,100,29.93,29.79,29.73,10,5,2,18,9,,0.05,8,Snow,172
2012-12-27,32,23,14,32,24,14,100,100,97,30.25,30.02,29.85,10,8,0,18,8,,T,4,Fog,293
2012-12-28,30,20,9,28,18,9,100,99,79,30.36,30.26,30.16,10,8,0,17,5,,0.00,2,Fog,128
2012-12-29,28,22,15,23,21,15,100,97,74,30.30,30.12,30.04,10,8,2,21,8,,T,7,Snow,214
2012-12-30,25,13,1,25,17,1,100,100,100,30.40,30.21,30.07,10,6,0,12,5,,T,6,Fog-Snow,300
2012-12-31,23,12,1,22,11,2,100,100,99,30.56,30.33,30.22,10,7,0,12,3,,T,4,Fog-Snow,301